Airfield :
LOGIN :

Register | Disclaimer

   EN    FR    IT 

 










Legend :    VFR   Marginal VFR   IFR   Intensive IFR   Very Intensive IFR
Visi :
Ceiling :
>= 8 km
>= 3000ft
5 to 8 km
1000 to 3000 ft
1500m to 5 km
500 to 1000 ft
800 to 1500m
200 to 500 ft
< 800m
< 200 ft
Symbols :   Thunderstorms  Fog  Heavy snow  Heavy precipitations  Wind > 20 kt
SIGMETs :     Misc.  Thunderstorms  Icing  Turbulence  Mountain Waves  Volcanic Ashes






- Airport Elevation : 266 ft
- IATA code : NCL


EGNT - Newcastle

CURRENT METAR :
  • 031350Z AUTO 01014KT 9999 BKN021/// OVC037/// 12/06 Q1013

EXPIRED METARs :
  • 031320Z AUTO 36014KT 9999 OVC019/// 11/06 Q1014
  • 031250Z AUTO 01013KT 340V040 9999 BKN018/// OVC035/// 11/06 Q1014
  • 031220Z AUTO 01015KT 9999 OVC019/// 10/05 Q1014
  • 031150Z 36014KT 9999 BKN025 11/06 Q1014
  • 031120Z 01017KT 9999 BKN025 10/06 Q1014

TAF TAF EGNT
Valid from the 03 at 12:00 until the 04 at 12:00 UTC


031100Z 0312/0412 36012KT 9999 SCT020
TEMPO 0312/0321 02015G25KT
PROB30
TEMPO 0312/0324 8000 -SHRA BKN014
ATIS : +44 191 214 3400



MET'MAP, your aeronautical weather chart ! - Copyright ORBIFLY December 2007 - Disclaimer

ORBIFLY MET'MAP TEAM :

Programming & Development : Alexandra Zaïnal
Concept & original design : Baudouin d'Aumeries
Assistance for programming : Marc-Olivier Méhu
Technical & hardware support : Manuel Goepfert

Contact : metmap@orbifly.com




SOURCES & CREDITS :

   NOAA